Time;durP1;ratioP1;P1;durP2;ratioP2;P2;SDS_P1;SDS_P2;PMS_P1;PMS_P2;Temp;Humidity;BMP_temperature;BMP_pressure;BME280_temperature;BME280_humidity;BME280_pressure;Samples;Min_cycle;Max_cycle;Signal;HPM_P1;HPM_P2
2022/01/22 00:00:29;;;;;;;;;38.67;34.33;;;;;;;;4989214;28;45454;-80
2022/01/22 00:02:54;;;;;;;;;43.33;38.00;;;;;;;;4989241;28;46406;-80
2022/01/22 00:05:20;;;;;;;;;40.75;37.00;;;;;;;;4989531;28;45597;-80
2022/01/22 00:07:46;;;;;;;;;37.75;34.00;;;;;;;;4988666;28;45527;-80
2022/01/22 00:10:16;;;;;;;;;33.75;32.25;;;;;;;;4989395;28;45435;-80
2022/01/22 00:13:06;;;;;;;;;32.25;29.75;;;;;;;;4971289;28;46929;-80
2022/01/22 00:15:31;;;;;;;;;31.75;30.25;;;;;;;;4978934;28;45898;-81
2022/01/22 00:17:57;;;;;;;;;33.25;30.50;;;;;;;;4971577;28;45752;-80
2022/01/22 00:20:24;;;;;;;;;33.25;30.50;;;;;;;;4989246;28;45435;-80
2022/01/22 00:22:50;;;;;;;;;27.50;26.75;;;;;;;;4988590;28;46677;-80
2022/01/22 00:25:16;;;;;;;;;28.25;27.00;;;;;;;;4988860;28;45933;-80
2022/01/22 00:27:42;;;;;;;;;35.00;31.75;;;;;;;;4989488;28;45601;-80
2022/01/22 00:30:09;;;;;;;;;31.00;31.00;;;;;;;;4988465;28;45777;-80
2022/01/22 00:32:34;;;;;;;;;34.75;31.75;;;;;;;;4988885;28;46556;-80
2022/01/22 00:35:00;;;;;;;;;39.75;33.50;;;;;;;;4988372;28;45746;-80
2022/01/22 00:37:25;;;;;;;;;33.00;30.00;;;;;;;;4988578;28;45481;-80
2022/01/22 00:39:50;;;;;;;;;30.50;28.25;;;;;;;;4988904;28;45621;-80
2022/01/22 00:42:16;;;;;;;;;27.33;26.67;;;;;;;;4988668;28;46466;-81
2022/01/22 00:44:42;;;;;;;;;29.75;29.25;;;;;;;;4988675;28;45811;-80
2022/01/22 00:47:07;;;;;;;;;29.50;27.50;;;;;;;;4988232;28;45528;-80
2022/01/22 00:49:33;;;;;;;;;30.25;27.25;;;;;;;;4989413;28;45586;-80
2022/01/22 00:51:58;;;;;;;;;24.00;22.75;;;;;;;;4969749;28;46004;-80
2022/01/22 00:54:24;;;;;;;;;23.50;21.50;;;;;;;;4989009;28;45627;-80
2022/01/22 00:56:49;;;;;;;;;25.25;25.25;;;;;;;;4988995;28;45739;-80
2022/01/22 00:59:14;;;;;;;;;24.50;24.50;;;;;;;;4988118;28;45687;-80
2022/01/22 01:01:40;;;;;;;;;21.75;21.75;;;;;;;;4989431;28;46416;-80
2022/01/22 01:04:08;;;;;;;;;19.75;18.75;;;;;;;;4974266;28;45903;-80
2022/01/22 01:06:33;;;;;;;;;26.00;25.25;;;;;;;;4991866;28;45369;-80
2022/01/22 01:09:00;;;;;;;;;17.00;17.00;;;;;;;;4991613;28;45642;-79
2022/01/22 01:11:27;;;;;;;;;20.75;20.00;;;;;;;;4974437;28;46206;-80
2022/01/22 01:13:57;;;;;;;;;22.00;20.75;;;;;;;;4990379;28;46103;-80
2022/01/22 01:35:22;;;;;;;;;20.00;19.75;;;;;;;;4990935;28;45471;-80
2022/01/22 01:37:48;;;;;;;;;23.50;17.50;;;;;;;;4991523;28;45681;-80
2022/01/22 01:40:18;;;;;;;;;17.75;16.00;;;;;;;;4991521;28;45561;-80
2022/01/22 01:43:30;;;;;;;;;21.00;19.50;;;;;;;;4991008;28;46379;-80
2022/01/22 01:45:31;;;;;;;;;21.50;20.50;;;;;;;;4983295;28;45894;-80
2022/01/22 01:48:00;;;;;;;;;18.33;18.00;;;;;;;;4991493;28;45748;-79
2022/01/22 01:50:26;;;;;;;;;20.25;16.75;;;;;;;;4991067;28;45544;-80
2022/01/22 01:53:06;;;;;;;;;21.75;20.75;;;;;;;;4991170;28;46609;-80
2022/01/22 01:55:48;;;;;;;;;16.75;15.75;;;;;;;;4991605;28;45886;-80
2022/01/22 01:58:14;;;;;;;;;15.75;13.75;;;;;;;;4990749;28;45859;-80
2022/01/22 02:00:39;;;;;;;;;15.50;14.50;;;;;;;;4979167;28;46535;-80
2022/01/22 02:03:05;;;;;;;;;20.00;17.25;;;;;;;;4967842;28;48415;-80
2022/01/22 02:05:32;;;;;;;;;17.00;16.00;;;;;;;;4990950;28;45584;-80
2022/01/22 02:07:58;;;;;;;;;16.50;16.00;;;;;;;;4991339;28;45701;-80
2022/01/22 02:10:27;;;;;;;;;14.25;12.25;;;;;;;;4991369;28;45778;-80
2022/01/22 02:23:36;;;;;;;;;10.75;9.75;;;;;;;;4991297;28;45336;-80
2022/01/22 02:26:02;;;;;;;;;10.00;10.00;;;;;;;;4990655;28;46049;-80
2022/01/22 02:28:28;;;;;;;;;13.25;11.50;;;;;;;;5001724;28;45395;-80
2022/01/22 02:31:00;;;;;;;;;15.75;14.25;;;;;;;;4972915;28;45555;-80
2022/01/22 02:33:42;;;;;;;;;13.00;12.25;;;;;;;;4990477;28;45594;-80
2022/01/22 02:36:14;;;;;;;;;15.75;15.25;;;;;;;;4989991;28;45369;-80
2022/01/22 02:38:50;;;;;;;;;15.25;11.75;;;;;;;;4990682;28;45449;-80
2022/01/22 02:41:18;;;;;;;;;12.50;12.50;;;;;;;;4990222;28;45950;-80
2022/01/22 02:43:46;;;;;;;;;16.00;15.50;;;;;;;;4990823;28;45578;-81
2022/01/22 02:46:14;;;;;;;;;15.75;14.75;;;;;;;;4990325;28;46092;-80
2022/01/22 02:48:39;;;;;;;;;13.75;13.75;;;;;;;;4990360;28;45848;-80
2022/01/22 02:51:04;;;;;;;;;16.33;16.00;;;;;;;;4990322;28;45597;-80
2022/01/22 02:53:29;;;;;;;;;20.67;16.67;;;;;;;;4990408;28;46370;-80
2022/01/22 02:55:55;;;;;;;;;16.00;16.00;;;;;;;;4990110;28;45633;-80
2022/01/22 02:58:21;;;;;;;;;20.50;18.25;;;;;;;;4990921;28;45722;-80
2022/01/22 03:00:46;;;;;;;;;17.33;16.33;;;;;;;;4990110;28;45392;-80
2022/01/22 03:03:11;;;;;;;;;16.00;15.00;;;;;;;;4989813;28;46431;-81
2022/01/22 03:05:36;;;;;;;;;18.33;16.67;;;;;;;;4989570;28;45643;-79
2022/01/22 03:08:06;;;;;;;;;16.00;16.00;;;;;;;;4990383;28;45536;-80
2022/01/22 03:10:32;;;;;;;;;12.75;12.50;;;;;;;;4990425;28;45920;-80
2022/01/22 03:18:02;;;;;;;;;16.50;16.25;;;;;;;;4989757;28;45559;-80
2022/01/22 03:27:20;;;;;;;;;18.00;18.00;;;;;;;;5003893;28;45957;-81
2022/01/22 03:28:53;;;;;;;;;13.25;13.25;;;;;;;;4976989;28;45744;-81
2022/01/22 03:31:19;;;;;;;;;15.75;13.25;;;;;;;;4989928;28;45666;-80
2022/01/22 03:33:44;;;;;;;;;15.25;14.25;;;;;;;;4989316;28;46346;-80
2022/01/22 03:36:11;;;;;;;;;12.00;10.67;;;;;;;;4989329;28;45600;-80
2022/01/22 03:38:36;;;;;;;;;10.50;10.00;;;;;;;;4990450;28;45353;-80
2022/01/22 03:41:02;;;;;;;;;7.67;7.67;;;;;;;;4989611;28;45358;-80
2022/01/22 03:43:27;;;;;;;;;10.00;8.50;;;;;;;;4990080;28;46530;-80
2022/01/22 03:45:52;;;;;;;;;9.33;8.00;;;;;;;;4971499;28;45517;-80
2022/01/22 03:48:18;;;;;;;;;7.00;7.00;;;;;;;;4972022;28;45770;-81
2022/01/22 03:50:43;;;;;;;;;10.00;10.00;;;;;;;;4989343;28;45545;-80
2022/01/22 03:53:08;;;;;;;;;9.33;8.67;;;;;;;;4989077;28;45660;-80
2022/01/22 03:58:17;;;;;;;;;8.00;7.75;;;;;;;;4988895;28;45786;-80
2022/01/22 04:00:43;;;;;;;;;10.00;8.00;;;;;;;;4989810;28;45483;-80
2022/01/22 04:05:53;;;;;;;;;10.75;10.50;;;;;;;;4989486;28;45842;-81
2022/01/22 04:08:19;;;;;;;;;11.75;11.00;;;;;;;;4989640;28;45538;-80
2022/01/22 04:10:44;;;;;;;;;8.75;8.75;;;;;;;;4971403;28;46159;-81
2022/01/22 04:13:13;;;;;;;;;7.00;6.33;;;;;;;;4989023;28;46541;-81
2022/01/22 04:15:40;;;;;;;;;10.25;9.75;;;;;;;;4989481;28;45521;-80
2022/01/22 04:28:46;;;;;;;;;11.75;11.50;;;;;;;;4989181;28;45945;-80
2022/01/22 04:31:11;;;;;;;;;10.00;8.67;;;;;;;;4988863;28;45561;-80
2022/01/22 04:33:36;;;;;;;;;12.00;11.00;;;;;;;;4988190;28;46370;-80
2022/01/22 04:36:01;;;;;;;;;11.00;11.00;;;;;;;;4989965;28;45482;-79
2022/01/22 04:38:27;;;;;;;;;12.00;11.00;;;;;;;;4992991;28;45845;-80
2022/01/22 04:40:52;;;;;;;;;11.67;11.33;;;;;;;;4992143;28;45769;-80
2022/01/22 04:43:18;;;;;;;;;11.00;10.67;;;;;;;;4974196;28;47269;-80
2022/01/22 04:45:56;;;;;;;;;13.00;12.50;;;;;;;;4992421;28;45446;-80
2022/01/22 04:48:49;;;;;;;;;14.00;11.75;;;;;;;;4971091;28;45532;-80
2022/01/22 04:56:43;;;;;;;;;12.75;11.25;;;;;;;;4992479;28;45445;-80
2022/01/22 04:59:08;;;;;;;;;11.67;10.67;;;;;;;;4992352;28;45492;-81
2022/01/22 05:01:33;;;;;;;;;15.67;15.33;;;;;;;;4992939;28;45728;-81
2022/01/22 05:03:59;;;;;;;;;15.33;13.67;;;;;;;;4984479;28;47091;-80
2022/01/22 05:06:26;;;;;;;;;14.00;13.00;;;;;;;;4991937;28;45387;-80
2022/01/22 05:08:51;;;;;;;;;12.00;12.00;;;;;;;;4992042;28;45520;-80
2022/01/22 05:11:18;;;;;;;;;16.25;15.00;;;;;;;;4992028;28;45483;-80
2022/01/22 05:13:43;;;;;;;;;15.75;13.00;;;;;;;;4992242;28;46489;-80
2022/01/22 05:16:08;;;;;;;;;17.00;15.00;;;;;;;;4992089;28;45543;-79
2022/01/22 05:18:40;;;;;;;;;13.00;12.67;;;;;;;;4992446;28;45672;-80
2022/01/22 05:21:10;;;;;;;;;16.00;13.50;;;;;;;;4984318;28;45471;-79
2022/01/22 05:23:37;;;;;;;;;17.00;15.50;;;;;;;;4972461;28;45571;-80
2022/01/22 05:26:05;;;;;;;;;19.50;17.00;;;;;;;;4971950;28;46016;-80
2022/01/22 05:29:14;;;;;;;;;17.25;15.75;;;;;;;;4972662;28;45725;-80
2022/01/22 05:39:24;;;;;;;;;17.75;17.00;;;;;;;;4991803;28;45911;-79
2022/01/22 05:41:50;;;;;;;;;20.25;16.50;;;;;;;;4991866;28;45540;-80
2022/01/22 05:44:15;;;;;;;;;18.25;17.25;;;;;;;;4991774;28;46293;-80
2022/01/22 05:46:41;;;;;;;;;21.00;17.00;;;;;;;;4991397;28;45702;-79
2022/01/22 05:49:06;;;;;;;;;21.50;20.50;;;;;;;;4990957;28;45571;-80
2022/01/22 05:51:32;;;;;;;;;17.50;17.50;;;;;;;;4991831;28;45712;-80
2022/01/22 06:01:53;;;;;;;;;20.75;18.75;;;;;;;;4971392;28;45389;-79
2022/01/22 06:04:18;;;;;;;;;22.33;21.33;;;;;;;;4972021;28;45591;-80
2022/01/22 06:06:43;;;;;;;;;25.33;21.00;;;;;;;;4971689;28;45674;-81
2022/01/22 06:09:09;;;;;;;;;27.67;23.00;;;;;;;;4971320;28;45678;-80
2022/01/22 06:11:50;;;;;;;;;21.25;21.00;;;;;;;;4972278;28;45765;-81
2022/01/22 06:14:19;;;;;;;;;21.50;20.50;;;;;;;;4990823;28;46893;-80
2022/01/22 06:16:44;;;;;;;;;25.75;21.50;;;;;;;;4991254;28;45499;-80
2022/01/22 06:19:10;;;;;;;;;26.75;24.50;;;;;;;;4973462;28;45703;-80
2022/01/22 06:21:35;;;;;;;;;21.67;21.00;;;;;;;;4973579;28;45513;-80
2022/01/22 06:24:00;;;;;;;;;27.33;24.00;;;;;;;;4990389;28;45573;-81
2022/01/22 06:26:25;;;;;;;;;27.00;24.00;;;;;;;;4973703;28;45611;-80
2022/01/22 06:28:50;;;;;;;;;28.67;27.00;;;;;;;;4991324;28;45435;-80
2022/01/22 06:31:16;;;;;;;;;23.33;21.33;;;;;;;;4990481;28;45725;-81
2022/01/22 06:33:41;;;;;;;;;25.00;23.33;;;;;;;;4991866;28;45826;-80
2022/01/22 06:36:06;;;;;;;;;21.67;20.33;;;;;;;;4971993;28;45555;-80
2022/01/22 06:38:32;;;;;;;;;22.33;21.67;;;;;;;;4990712;28;45411;-79
2022/01/22 06:43:41;;;;;;;;;30.75;28.00;;;;;;;;4990755;28;46361;-80
2022/01/22 06:46:07;;;;;;;;;30.33;24.00;;;;;;;;4990159;28;45854;-80
2022/01/22 06:48:32;;;;;;;;;29.67;26.00;;;;;;;;4991270;28;45740;-81
2022/01/22 06:50:58;;;;;;;;;29.00;27.00;;;;;;;;4990010;28;45272;-81
2022/01/22 06:53:27;;;;;;;;;25.75;25.00;;;;;;;;4972225;28;48327;-80
2022/01/22 06:56:03;;;;;;;;;25.75;24.50;;;;;;;;4972945;28;45859;-80
2022/01/22 06:58:29;;;;;;;;;28.25;26.75;;;;;;;;4991214;28;45731;-80
2022/01/22 07:00:54;;;;;;;;;26.00;24.00;;;;;;;;4989711;28;45522;-80
2022/01/22 07:03:19;;;;;;;;;30.67;27.67;;;;;;;;4990525;28;45368;-80
2022/01/22 07:05:44;;;;;;;;;27.25;25.00;;;;;;;;4972320;28;45525;-80
2022/01/22 07:08:10;;;;;;;;;24.67;23.33;;;;;;;;4990090;28;45611;-79
2022/01/22 07:10:35;;;;;;;;;31.00;29.50;;;;;;;;4973008;28;45563;-80
2022/01/22 07:13:00;;;;;;;;;30.67;26.67;;;;;;;;4972407;28;46181;-80
2022/01/22 07:15:26;;;;;;;;;31.00;27.00;;;;;;;;4990284;28;45446;-83
2022/01/22 07:17:51;;;;;;;;;24.67;22.00;;;;;;;;4972475;28;45505;-80
2022/01/22 07:20:24;;;;;;;;;31.00;22.75;;;;;;;;4972004;28;45454;-80
2022/01/22 07:22:53;;;;;;;;;28.25;25.00;;;;;;;;4989544;28;45800;-79
2022/01/22 07:25:18;;;;;;;;;24.50;22.75;;;;;;;;4971681;28;45890;-79
2022/01/22 07:27:44;;;;;;;;;33.75;29.25;;;;;;;;4980572;28;45452;-80
2022/01/22 07:30:09;;;;;;;;;27.25;26.25;;;;;;;;4990618;28;45484;-80
2022/01/22 07:32:37;;;;;;;;;24.50;22.50;;;;;;;;4990191;28;45451;-80
2022/01/22 07:35:04;;;;;;;;;30.00;28.25;;;;;;;;4989309;28;45415;-80
2022/01/22 07:37:29;;;;;;;;;28.75;27.75;;;;;;;;4989884;28;45396;-80
2022/01/22 07:39:54;;;;;;;;;29.33;24.00;;;;;;;;4989504;28;45400;-81
2022/01/22 07:42:19;;;;;;;;;32.67;28.67;;;;;;;;4990138;28;46149;-80
2022/01/22 07:44:46;;;;;;;;;32.25;26.75;;;;;;;;5012780;28;45631;-80
2022/01/22 07:47:11;;;;;;;;;25.33;24.00;;;;;;;;5027834;28;45339;-80
2022/01/22 07:49:36;;;;;;;;;26.25;25.00;;;;;;;;5020575;28;45796;-79
2022/01/22 07:52:02;;;;;;;;;30.25;28.25;;;;;;;;4992252;28;45964;-79
2022/01/22 07:54:27;;;;;;;;;28.50;25.50;;;;;;;;4989752;28;45707;-80
2022/01/22 07:56:52;;;;;;;;;29.00;26.33;;;;;;;;4989921;28;45484;-80
2022/01/22 07:59:17;;;;;;;;;32.00;29.67;;;;;;;;4989285;28;45818;-79
2022/01/22 08:01:43;;;;;;;;;31.67;27.00;;;;;;;;4989248;28;45778;-79
2022/01/22 08:04:08;;;;;;;;;35.67;27.33;;;;;;;;4971702;28;45924;-79
2022/01/22 08:06:33;;;;;;;;;27.00;26.33;;;;;;;;4989667;28;45690;-80
2022/01/22 08:08:58;;;;;;;;;26.33;24.33;;;;;;;;4988881;28;45715;-79
2022/01/22 08:11:23;;;;;;;;;35.67;30.67;;;;;;;;4993576;28;45419;-80
2022/01/22 08:13:49;;;;;;;;;25.67;23.00;;;;;;;;4996031;28;45615;-80
2022/01/22 08:16:14;;;;;;;;;27.33;26.00;;;;;;;;4995636;28;45478;-79
2022/01/22 08:18:39;;;;;;;;;34.00;29.33;;;;;;;;4978387;28;45489;-80
2022/01/22 08:21:04;;;;;;;;;29.67;27.67;;;;;;;;4977606;28;48595;-79
2022/01/22 08:23:32;;;;;;;;;26.00;22.67;;;;;;;;4977440;28;45556;-79
2022/01/22 08:25:57;;;;;;;;;34.25;33.25;;;;;;;;4977844;28;45468;-79
2022/01/22 08:31:20;;;;;;;;;30.25;28.50;;;;;;;;4994872;28;45417;-79
2022/01/22 08:36:29;;;;;;;;;39.00;34.25;;;;;;;;4995857;28;45460;-83
2022/01/22 08:38:54;;;;;;;;;32.67;31.67;;;;;;;;4977761;28;45563;-81
2022/01/22 08:41:20;;;;;;;;;40.67;35.00;;;;;;;;4977887;28;47032;-83
2022/01/22 08:43:45;;;;;;;;;32.00;27.00;;;;;;;;4995637;28;45472;-84
2022/01/22 08:46:10;;;;;;;;;31.67;29.33;;;;;;;;4995764;28;45325;-84
2022/01/22 08:48:35;;;;;;;;;32.67;29.33;;;;;;;;4978688;28;45496;-85
2022/01/22 08:51:01;;;;;;;;;35.00;32.00;;;;;;;;4995543;28;47735;-85
2022/01/22 08:53:26;;;;;;;;;34.75;33.25;;;;;;;;4995165;28;45722;-84
2022/01/22 08:55:52;;;;;;;;;36.50;33.50;;;;;;;;4995583;28;45553;-84
2022/01/22 08:58:17;;;;;;;;;29.75;27.75;;;;;;;;4978263;28;45588;-81
2022/01/22 09:00:43;;;;;;;;;38.67;36.67;;;;;;;;4977837;28;47258;-82
2022/01/22 09:03:09;;;;;;;;;32.75;28.50;;;;;;;;4996019;28;45547;-84
2022/01/22 09:05:36;;;;;;;;;29.00;27.75;;;;;;;;4995978;28;45696;-83
2022/01/22 09:08:02;;;;;;;;;25.00;24.75;;;;;;;;4994852;28;45926;-81
2022/01/22 09:10:28;;;;;;;;;30.25;28.25;;;;;;;;4995680;28;47098;-82
2022/01/22 09:12:53;;;;;;;;;28.67;27.67;;;;;;;;4995251;28;45475;-83
2022/01/22 09:15:18;;;;;;;;;31.67;30.00;;;;;;;;4977284;28;45813;-84
2022/01/22 09:17:47;;;;;;;;;37.00;35.67;;;;;;;;4995840;28;45501;-84
2022/01/22 09:20:19;;;;;;;;;32.25;30.00;;;;;;;;4995222;28;45570;-84
2022/01/22 09:22:44;;;;;;;;;28.25;26.00;;;;;;;;4973653;28;45577;-82
2022/01/22 09:25:15;;;;;;;;;36.67;32.33;;;;;;;;4992329;28;45376;-84
2022/01/22 09:27:40;;;;;;;;;29.75;27.75;;;;;;;;4975273;28;45844;-85
2022/01/22 09:30:05;;;;;;;;;32.33;30.00;;;;;;;;4992218;28;46529;-85
2022/01/22 09:32:31;;;;;;;;;34.50;31.50;;;;;;;;4974570;28;45543;-84
2022/01/22 09:34:56;;;;;;;;;38.33;32.67;;;;;;;;4992136;28;45331;-86
2022/01/22 09:37:21;;;;;;;;;37.50;33.00;;;;;;;;4991890;28;45547;-86
2022/01/22 09:39:47;;;;;;;;;33.33;29.00;;;;;;;;4992026;28;45506;-84
2022/01/22 09:42:15;;;;;;;;;35.50;32.50;;;;;;;;4992137;28;45422;-83
2022/01/22 09:44:41;;;;;;;;;34.50;32.25;;;;;;;;4991985;28;45571;-83
2022/01/22 09:47:07;;;;;;;;;36.00;35.00;;;;;;;;4991276;28;45546;-84
2022/01/22 09:49:32;;;;;;;;;37.00;34.00;;;;;;;;4992029;28;46357;-83
2022/01/22 09:51:58;;;;;;;;;37.67;33.67;;;;;;;;4990920;28;45420;-84
2022/01/22 09:54:23;;;;;;;;;31.00;29.33;;;;;;;;4992030;28;45653;-83
2022/01/22 09:56:48;;;;;;;;;33.67;31.67;;;;;;;;4991849;28;45319;-83
2022/01/22 09:59:13;;;;;;;;;38.00;32.67;;;;;;;;4991436;28;46542;-83
2022/01/22 10:01:38;;;;;;;;;35.67;33.00;;;;;;;;4991720;28;45564;-83
2022/01/22 10:04:05;;;;;;;;;28.67;28.33;;;;;;;;4992197;28;45435;-83
2022/01/22 10:06:31;;;;;;;;;33.25;30.75;;;;;;;;4974547;28;45414;-85
2022/01/22 10:09:07;;;;;;;;;33.25;29.50;;;;;;;;4990732;28;45489;-85
2022/01/22 10:11:32;;;;;;;;;27.00;26.50;;;;;;;;4993823;28;45459;-85
2022/01/22 10:13:59;;;;;;;;;34.00;32.00;;;;;;;;5001189;28;45595;-84
2022/01/22 10:16:31;;;;;;;;;30.50;30.00;;;;;;;;5005820;28;45139;-84
2022/01/22 10:19:15;;;;;;;;;36.75;33.75;;;;;;;;4995856;28;45538;-84
2022/01/22 10:21:42;;;;;;;;;36.50;33.75;;;;;;;;4999285;28;45591;-84
2022/01/22 10:24:28;;;;;;;;;43.25;33.25;;;;;;;;4979851;28;45636;-84
2022/01/22 10:27:18;;;;;;;;;38.25;34.00;;;;;;;;4998360;28;45801;-83
2022/01/22 10:29:48;;;;;;;;;34.00;31.00;;;;;;;;4974550;28;48254;-83
2022/01/22 10:32:18;;;;;;;;;37.00;31.75;;;;;;;;5001431;28;45874;-81
2022/01/22 10:34:43;;;;;;;;;37.50;35.00;;;;;;;;4983147;28;45448;-81
2022/01/22 10:37:08;;;;;;;;;28.33;27.00;;;;;;;;4989585;28;44803;-83
2022/01/22 10:39:33;;;;;;;;;26.33;23.33;;;;;;;;4994094;28;45821;-83
2022/01/22 10:41:58;;;;;;;;;33.00;30.00;;;;;;;;4972759;28;46364;-86
2022/01/22 10:44:37;;;;;;;;;36.67;33.00;;;;;;;;4972932;28;45362;-84
2022/01/22 10:47:04;;;;;;;;;35.75;32.00;;;;;;;;4973412;28;45578;-86
2022/01/22 10:49:29;;;;;;;;;35.00;30.75;;;;;;;;4973045;28;47350;-83
2022/01/22 10:51:59;;;;;;;;;35.50;33.00;;;;;;;;4972204;28;45497;-84
2022/01/22 10:54:29;;;;;;;;;37.25;33.00;;;;;;;;4973449;28;45532;-85
2022/01/22 10:57:08;;;;;;;;;36.50;30.50;;;;;;;;4990754;28;45570;-82
2022/01/22 10:59:33;;;;;;;;;38.75;34.00;;;;;;;;4973501;28;46772;-86
2022/01/22 11:01:59;;;;;;;;;31.00;29.00;;;;;;;;4990303;28;45305;-84
2022/01/22 11:04:26;;;;;;;;;35.50;31.50;;;;;;;;4990641;28;45384;-84
2022/01/22 11:06:56;;;;;;;;;34.75;33.00;;;;;;;;4972570;28;45420;-85
2022/01/22 11:09:23;;;;;;;;;31.75;27.75;;;;;;;;4990636;28;45541;-84
2022/01/22 11:11:49;;;;;;;;;34.50;31.75;;;;;;;;4990125;28;45805;-81
2022/01/22 11:14:14;;;;;;;;;32.00;30.50;;;;;;;;4990617;28;45504;-82
2022/01/22 11:16:41;;;;;;;;;35.00;32.50;;;;;;;;4972958;28;45406;-83
2022/01/22 11:19:09;;;;;;;;;31.75;30.50;;;;;;;;4972215;28;46148;-82
2022/01/22 11:21:35;;;;;;;;;34.25;30.50;;;;;;;;4990400;28;45583;-83
2022/01/22 11:24:01;;;;;;;;;25.50;25.50;;;;;;;;4995525;28;46297;-84
2022/01/22 11:26:27;;;;;;;;;31.00;27.50;;;;;;;;5003415;28;45388;-85
2022/01/22 11:28:53;;;;;;;;;32.25;30.00;;;;;;;;5012139;28;46297;-83
2022/01/22 11:31:20;;;;;;;;;32.50;29.50;;;;;;;;5001763;28;45583;-83
2022/01/22 11:33:47;;;;;;;;;30.25;27.75;;;;;;;;4973694;28;45752;-86
2022/01/22 11:36:12;;;;;;;;;37.25;30.75;;;;;;;;4972907;28;45531;-83
2022/01/22 11:38:38;;;;;;;;;30.67;27.00;;;;;;;;4970746;28;46301;-82
2022/01/22 11:41:15;;;;;;;;;34.50;31.00;;;;;;;;4989138;28;45002;-82
2022/01/22 11:44:03;;;;;;;;;31.00;27.50;;;;;;;;4977704;28;45453;-83
2022/01/22 11:46:34;;;;;;;;;32.75;28.25;;;;;;;;5004514;28;45269;-82
2022/01/22 11:49:18;;;;;;;;;30.00;29.50;;;;;;;;5008216;28;45807;-82
2022/01/22 11:51:45;;;;;;;;;31.25;30.25;;;;;;;;5008148;28;45102;-83
2022/01/22 11:54:10;;;;;;;;;34.00;31.00;;;;;;;;5007705;28;45234;-82
2022/01/22 11:56:42;;;;;;;;;38.75;34.00;;;;;;;;4990716;28;45169;-85
2022/01/22 11:59:27;;;;;;;;;34.75;31.75;;;;;;;;5007853;28;45949;-83
2022/01/22 12:02:02;;;;;;;;;37.00;33.75;;;;;;;;5007289;28;45233;-85
2022/01/22 12:04:34;;;;;;;;;33.75;32.25;;;;;;;;4987470;28;45074;-86
2022/01/22 12:07:02;;;;;;;;;31.50;30.50;;;;;;;;4988355;28;45220;-85
2022/01/22 12:09:32;;;;;;;;;38.00;32.25;;;;;;;;4989241;28;45985;-85
2022/01/22 12:15:02;;;;;;;;;39.00;34.00;;;;;;;;5005144;28;45247;-85
2022/01/22 12:17:46;;;;;;;;;43.00;39.25;;;;;;;;4989845;28;45147;-85
2022/01/22 12:23:15;;;;;;;;;36.50;30.25;;;;;;;;4989880;28;45503;-84
2022/01/22 12:25:41;;;;;;;;;32.00;28.50;;;;;;;;4990173;28;45400;-85
2022/01/22 12:28:07;;;;;;;;;33.25;32.75;;;;;;;;4971757;28;45826;-85
2022/01/22 12:30:36;;;;;;;;;40.25;34.50;;;;;;;;4990092;28;46031;-85
2022/01/22 12:33:01;;;;;;;;;42.00;35.00;;;;;;;;4971868;28;45744;-86
2022/01/22 12:35:43;;;;;;;;;32.25;29.75;;;;;;;;4989855;28;45599;-85
2022/01/22 12:38:17;;;;;;;;;36.75;31.00;;;;;;;;4971504;28;45345;-85
2022/01/22 12:40:44;;;;;;;;;39.25;35.25;;;;;;;;4989392;28;46283;-83
2022/01/22 12:43:13;;;;;;;;;36.00;32.75;;;;;;;;4989791;28;45912;-85
2022/01/22 12:45:39;;;;;;;;;40.75;32.75;;;;;;;;4990067;28;45483;-86
2022/01/22 12:48:04;;;;;;;;;39.00;34.50;;;;;;;;4989519;28;45406;-86
2022/01/22 12:50:31;;;;;;;;;40.00;33.00;;;;;;;;4989667;28;46041;-84
2022/01/22 12:53:02;;;;;;;;;36.25;33.25;;;;;;;;4988842;28;45498;-85
2022/01/22 12:55:49;;;;;;;;;38.00;35.00;;;;;;;;4972028;28;45744;-86
2022/01/22 12:58:23;;;;;;;;;38.00;34.00;;;;;;;;4992532;28;45553;-85
2022/01/22 13:00:51;;;;;;;;;42.00;37.25;;;;;;;;4993182;28;45615;-85
2022/01/22 13:03:30;;;;;;;;;36.50;31.50;;;;;;;;4992559;28;45848;-84
2022/01/22 13:05:55;;;;;;;;;39.50;34.00;;;;;;;;4993094;28;45367;-86
2022/01/22 13:08:28;;;;;;;;;34.33;33.00;;;;;;;;4992685;28;45249;-86
2022/01/22 13:10:55;;;;;;;;;44.50;38.00;;;;;;;;4974453;28;48337;-86
2022/01/22 13:13:21;;;;;;;;;40.50;35.25;;;;;;;;4992652;28;45495;-83
2022/01/22 13:15:46;;;;;;;;;37.33;35.00;;;;;;;;4992502;28;45442;-82
2022/01/22 13:18:11;;;;;;;;;35.00;34.25;;;;;;;;4992173;28;45695;-82
2022/01/22 13:20:37;;;;;;;;;40.33;35.33;;;;;;;;4992673;28;45404;-83
2022/01/22 13:23:13;;;;;;;;;39.25;37.25;;;;;;;;4991788;28;45025;-84
2022/01/22 13:25:38;;;;;;;;;35.75;32.50;;;;;;;;4992097;28;45340;-84
2022/01/22 13:28:09;;;;;;;;;40.67;35.00;;;;;;;;4992253;28;45413;-83
2022/01/22 13:30:40;;;;;;;;;32.00;31.25;;;;;;;;4992329;28;46089;-83
2022/01/22 13:33:20;;;;;;;;;40.00;33.50;;;;;;;;4973698;28;45630;-84
2022/01/22 13:36:14;;;;;;;;;32.50;30.75;;;;;;;;4992131;28;45476;-86
2022/01/22 13:49:34;;;;;;;;;26.25;24.50;;;;;;;;4992267;28;46269;-82
2022/01/22 13:52:05;;;;;;;;;33.50;30.25;;;;;;;;4991377;28;45556;-84
2022/01/22 13:54:31;;;;;;;;;33.75;31.75;;;;;;;;4991798;28;45719;-82
2022/01/22 13:56:59;;;;;;;;;38.25;34.25;;;;;;;;4974018;28;45675;-82
2022/01/22 13:59:29;;;;;;;;;33.00;31.00;;;;;;;;4974522;28;45577;-83
2022/01/22 14:02:14;;;;;;;;;36.75;34.50;;;;;;;;4973488;28;47249;-85
2022/01/22 14:04:49;;;;;;;;;34.25;33.50;;;;;;;;4974390;28;45898;-85
2022/01/22 14:07:18;;;;;;;;;39.75;36.00;;;;;;;;4991378;28;45401;-82
2022/01/22 14:09:54;;;;;;;;;37.50;33.25;;;;;;;;4972730;28;45623;-81
2022/01/22 14:12:19;;;;;;;;;41.50;33.75;;;;;;;;4991381;28;45519;-86
2022/01/22 14:14:56;;;;;;;;;35.33;33.00;;;;;;;;4973649;28;45519;-86
2022/01/22 14:17:24;;;;;;;;;39.25;36.75;;;;;;;;4974015;28;45872;-82
2022/01/22 14:20:07;;;;;;;;;36.75;34.25;;;;;;;;4973614;28;45715;-83
2022/01/22 14:22:51;;;;;;;;;32.50;32.00;;;;;;;;4973668;28;48187;-83
2022/01/22 14:25:17;;;;;;;;;38.25;33.25;;;;;;;;4973221;28;45770;-83
2022/01/22 14:27:42;;;;;;;;;39.50;33.00;;;;;;;;4973945;28;45659;-82
2022/01/22 14:30:07;;;;;;;;;41.33;37.33;;;;;;;;4990967;28;45503;-83
2022/01/22 14:32:33;;;;;;;;;38.50;34.25;;;;;;;;4990743;28;45620;-84
2022/01/22 14:34:59;;;;;;;;;37.50;35.50;;;;;;;;4991042;28;45480;-85
2022/01/22 14:37:28;;;;;;;;;40.25;35.25;;;;;;;;4991616;28;45507;-87
2022/01/22 14:45:24;;;;;;;;;39.25;35.00;;;;;;;;4992057;28;45742;-86
2022/01/22 14:47:54;;;;;;;;;38.33;36.00;;;;;;;;4973193;28;45538;-86
2022/01/22 14:50:19;;;;;;;;;42.25;36.25;;;;;;;;4973742;28;45468;-84
2022/01/22 14:52:47;;;;;;;;;42.50;38.00;;;;;;;;4972883;28;47212;-87
2022/01/22 14:55:13;;;;;;;;;42.50;37.75;;;;;;;;4973264;28;45570;-85
2022/01/22 14:57:39;;;;;;;;;43.50;38.50;;;;;;;;4991482;28;45450;-85
2022/01/22 15:00:07;;;;;;;;;39.75;36.00;;;;;;;;4973747;28;45611;-85
2022/01/22 15:02:33;;;;;;;;;41.50;38.00;;;;;;;;4990990;28;45507;-86
2022/01/22 15:04:58;;;;;;;;;42.00;37.25;;;;;;;;4991035;28;45409;-87
2022/01/22 15:07:23;;;;;;;;;39.00;35.33;;;;;;;;4991215;28;45572;-83
2022/01/22 15:09:50;;;;;;;;;49.33;38.67;;;;;;;;4990374;28;45412;-85
2022/01/22 15:12:16;;;;;;;;;43.50;37.00;;;;;;;;4991248;28;45621;-86
2022/01/22 15:14:42;;;;;;;;;52.75;41.00;;;;;;;;4990980;28;46111;-84
2022/01/22 15:19:34;;;;;;;;;39.00;34.50;;;;;;;;4991124;28;45589;-86
2022/01/22 15:21:59;;;;;;;;;41.25;38.25;;;;;;;;4971825;28;48375;-85
2022/01/22 15:24:27;;;;;;;;;50.25;39.00;;;;;;;;4990449;28;45459;-86
2022/01/22 15:26:53;;;;;;;;;45.75;37.25;;;;;;;;4990693;28;45481;-86
2022/01/22 15:29:24;;;;;;;;;42.75;39.25;;;;;;;;4990205;28;45444;-82
2022/01/22 15:32:18;;;;;;;;;39.75;36.25;;;;;;;;4989662;28;45878;-86
2022/01/22 15:34:43;;;;;;;;;42.50;36.00;;;;;;;;4989143;28;45356;-83
2022/01/22 15:37:09;;;;;;;;;43.00;39.25;;;;;;;;4990109;28;45372;-83
2022/01/22 15:39:35;;;;;;;;;38.50;34.75;;;;;;;;4990807;28;45706;-83
2022/01/22 15:42:01;;;;;;;;;38.75;35.25;;;;;;;;4990032;28;46652;-85
2022/01/22 15:44:26;;;;;;;;;45.75;37.75;;;;;;;;4990719;28;45431;-85
2022/01/22 15:46:51;;;;;;;;;44.67;38.67;;;;;;;;4989889;28;45993;-82
2022/01/22 15:49:21;;;;;;;;;45.50;38.75;;;;;;;;4990073;28;45443;-85
2022/01/22 15:51:50;;;;;;;;;43.50;37.50;;;;;;;;4989742;28;45550;-83
2022/01/22 15:54:16;;;;;;;;;44.75;38.75;;;;;;;;4989572;28;45821;-85
2022/01/22 15:56:43;;;;;;;;;41.75;36.25;;;;;;;;4990417;28;45680;-85
2022/01/22 15:59:09;;;;;;;;;47.50;38.75;;;;;;;;4990108;28;45512;-84
2022/01/22 16:01:35;;;;;;;;;45.25;37.75;;;;;;;;4989864;28;46330;-85
2022/01/22 16:04:01;;;;;;;;;46.00;40.50;;;;;;;;4989450;28;45507;-83
2022/01/22 16:09:06;;;;;;;;;46.50;38.50;;;;;;;;4989240;28;45360;-85
2022/01/22 16:11:32;;;;;;;;;39.75;38.00;;;;;;;;4990181;28;45507;-84
2022/01/22 16:13:57;;;;;;;;;45.00;38.33;;;;;;;;4989550;28;45945;-84
2022/01/22 16:16:22;;;;;;;;;41.75;36.50;;;;;;;;4989735;28;45448;-82